createdAt,value
2023-01-18T00:02:07.831Z,95.85
2023-01-18T00:04:34.295Z,96.29
2023-01-18T00:07:00.776Z,95.90
2023-01-18T00:09:27.246Z,96.16
2023-01-18T00:11:53.769Z,96.23
2023-01-18T00:14:20.240Z,97.10
2023-01-18T00:16:46.670Z,97.08
2023-01-18T00:19:14.026Z,97.18
2023-01-18T00:21:40.923Z,97.29
2023-01-18T00:24:11.022Z,97.40
2023-01-18T00:26:38.086Z,97.97
2023-01-18T00:29:05.060Z,97.38
2023-01-18T00:31:31.757Z,97.46
2023-01-18T00:33:58.303Z,97.37
2023-01-18T00:36:24.835Z,97.56
2023-01-18T00:38:52.254Z,97.41
2023-01-18T00:41:20.174Z,97.30
2023-01-18T00:43:46.662Z,96.60
2023-01-18T00:46:16.278Z,96.47
2023-01-18T00:48:44.101Z,97.08
2023-01-18T00:51:14.064Z,97.35
2023-01-18T00:53:41.139Z,97.03
2023-01-18T00:56:09.691Z,97.24
2023-01-18T00:58:37.563Z,97.47
2023-01-18T01:01:06.374Z,97.22
2023-01-18T01:03:52.132Z,97.63
2023-01-18T01:06:43.802Z,97.54
2023-01-18T01:09:21.078Z,96.98
2023-01-18T01:12:07.174Z,96.77
2023-01-18T01:14:54.987Z,96.55
2023-01-18T01:17:40.183Z,97.31
2023-01-18T01:20:26.594Z,96.92
2023-01-18T01:23:11.406Z,97.05
2023-01-18T01:25:57.186Z,96.89
2023-01-18T01:28:24.113Z,96.77
2023-01-18T01:30:50.726Z,97.34
2023-01-18T01:33:18.002Z,96.75
2023-01-18T01:35:44.557Z,96.97
2023-01-18T01:38:11.176Z,97.13
2023-01-18T01:40:37.597Z,96.78
2023-01-18T01:43:04.031Z,96.86
2023-01-18T01:45:32.154Z,96.98
2023-01-18T01:47:59.412Z,97.00
2023-01-18T01:50:31.344Z,96.83
2023-01-18T01:52:58.512Z,97.13
2023-01-18T01:55:30.196Z,96.69
2023-01-18T01:58:00.929Z,97.04
2023-01-18T02:00:27.567Z,96.68
2023-01-18T02:03:00.732Z,96.24
2023-01-18T02:09:14.832Z,96.10
2023-01-18T02:11:42.299Z,96.51
2023-01-18T02:14:12.866Z,96.59
2023-01-18T02:17:10.361Z,96.51
2023-01-18T02:20:01.895Z,96.68
2023-01-18T02:22:48.495Z,96.75
2023-01-18T02:25:42.383Z,96.72
2023-01-18T02:28:10.420Z,96.31
2023-01-18T02:31:18.046Z,96.52
2023-01-18T02:34:02.297Z,96.60
2023-01-18T02:36:38.700Z,96.96
2023-01-18T02:39:23.563Z,97.04
2023-01-18T02:42:22.717Z,96.36
2023-01-18T02:45:08.010Z,96.74
2023-01-18T02:47:35.202Z,97.34
2023-01-18T02:50:03.309Z,96.53
2023-01-18T02:52:41.038Z,96.09
2023-01-18T02:55:24.419Z,93.42
2023-01-18T02:57:54.983Z,93.09
2023-01-18T03:00:23.389Z,93.07
2023-01-18T03:02:51.793Z,93.72
2023-01-18T03:05:19.195Z,93.79
2023-01-18T03:07:58.313Z,93.61
2023-01-18T03:10:31.078Z,94.04
2023-01-18T03:13:00.084Z,93.35
2023-01-18T03:15:56.355Z,93.45
2023-01-18T03:18:33.501Z,93.90
2023-01-18T03:21:05.541Z,93.98
2023-01-18T03:23:42.503Z,92.87
2023-01-18T03:26:14.590Z,92.56
2023-01-18T03:29:06.162Z,92.33
2023-01-18T03:32:03.409Z,92.59
2023-01-18T03:35:08.039Z,92.99
2023-01-18T03:37:40.752Z,92.39
2023-01-18T03:40:12.171Z,93.06
2023-01-18T03:42:51.915Z,93.14
2023-01-18T03:45:31.076Z,92.47
2023-01-18T03:47:57.632Z,92.46
2023-01-18T03:50:32.078Z,91.78
2023-01-18T03:53:04.624Z,91.51
2023-01-18T03:55:56.892Z,92.31
2023-01-18T03:58:32.364Z,92.17
2023-01-18T04:00:59.132Z,92.44
2023-01-18T04:03:25.671Z,92.42
2023-01-18T04:05:52.421Z,93.29
2023-01-18T04:08:21.879Z,93.75
2023-01-18T04:10:48.473Z,93.82
2023-01-18T04:13:14.985Z,93.17
2023-01-18T04:15:41.661Z,93.40
2023-01-18T04:18:08.160Z,93.09
2023-01-18T04:20:34.640Z,92.36
2023-01-18T04:23:01.411Z,92.59
2023-01-18T04:25:27.996Z,92.71
2023-01-18T04:27:54.480Z,92.28
2023-01-18T04:30:21.454Z,92.08
2023-01-18T04:32:47.901Z,91.65
2023-01-18T04:35:14.432Z,91.59
2023-01-18T04:37:41.373Z,91.19
2023-01-18T04:40:08.721Z,91.40
2023-01-18T04:42:35.221Z,91.29
2023-01-18T04:45:01.862Z,91.19
2023-01-18T04:47:29.060Z,90.96
2023-01-18T04:49:59.060Z,90.39
2023-01-18T04:52:26.717Z,89.49
2023-01-18T04:54:53.260Z,88.84
2023-01-18T04:57:19.655Z,88.36
2023-01-18T04:59:46.192Z,88.45
2023-01-18T05:02:15.128Z,87.91
2023-01-18T05:04:42.092Z,87.02
2023-01-18T05:07:08.591Z,87.24
2023-01-18T05:09:35.076Z,86.47
2023-01-18T05:12:01.838Z,85.56
2023-01-18T05:14:28.383Z,84.78
2023-01-18T05:16:54.862Z,84.42
2023-01-18T05:19:21.360Z,84.66
2023-01-18T05:21:47.937Z,84.25
2023-01-18T05:24:14.393Z,84.20
2023-01-18T05:26:40.874Z,84.95
2023-01-18T05:29:07.383Z,85.75
2023-01-18T05:31:53.329Z,86.24
2023-01-18T05:34:19.976Z,86.00
2023-01-18T05:36:47.619Z,85.86
2023-01-18T05:39:14.246Z,85.78
2023-01-18T05:41:40.662Z,86.00
2023-01-18T05:44:07.158Z,85.49
2023-01-18T05:46:33.676Z,85.73
2023-01-18T05:49:00.057Z,85.85
2023-01-18T05:51:26.610Z,85.14
2023-01-18T05:53:53.149Z,85.58
2023-01-18T05:56:19.647Z,85.37
2023-01-18T05:58:46.246Z,84.82
2023-01-18T06:01:13.148Z,84.84
2023-01-18T06:03:40.650Z,84.68
2023-01-18T06:06:07.419Z,84.76
2023-01-18T06:08:33.945Z,84.73
2023-01-18T06:11:00.927Z,84.37
2023-01-18T06:13:30.155Z,85.81
2023-01-18T06:15:58.180Z,85.50
2023-01-18T06:18:26.429Z,84.99
2023-01-18T06:20:54.791Z,84.88
2023-01-18T06:23:21.684Z,85.25
2023-01-18T06:25:48.128Z,84.69
2023-01-18T06:28:14.541Z,83.54
2023-01-18T06:30:42.938Z,82.09
2023-01-18T06:33:10.170Z,81.98
2023-01-18T06:35:37.234Z,82.78
2023-01-18T06:38:04.735Z,82.50
2023-01-18T06:40:31.321Z,82.70
2023-01-18T06:42:58.322Z,82.25
2023-01-18T06:45:25.912Z,82.64
2023-01-18T06:47:53.208Z,82.87
2023-01-18T06:50:20.227Z,82.33
2023-01-18T06:52:46.835Z,82.97
2023-01-18T06:55:14.443Z,82.84
2023-01-18T06:57:41.363Z,82.93
2023-01-18T07:00:09.409Z,82.26
2023-01-18T07:02:36.389Z,82.40
2023-01-18T07:05:04.127Z,82.26
2023-01-18T07:07:31.038Z,81.86
2023-01-18T07:09:57.621Z,81.43
2023-01-18T07:12:24.129Z,81.40
2023-01-18T07:14:51.138Z,82.75
2023-01-18T07:17:17.594Z,82.46
2023-01-18T07:19:44.796Z,82.20
2023-01-18T07:22:12.258Z,81.16
2023-01-18T07:24:38.865Z,81.29
2023-01-18T07:27:05.396Z,80.67
2023-01-18T07:29:31.942Z,81.30
2023-01-18T07:31:58.443Z,81.53
2023-01-18T07:34:25.074Z,80.16
2023-01-18T07:36:51.578Z,79.73
2023-01-18T07:39:18.077Z,79.38
2023-01-18T07:41:44.559Z,79.66
2023-01-18T07:44:11.767Z,78.77
2023-01-18T07:46:38.581Z,78.65
2023-01-18T07:49:05.850Z,78.13
2023-01-18T07:51:33.490Z,76.99
2023-01-18T07:53:59.992Z,77.90
2023-01-18T07:56:27.145Z,78.16
2023-01-18T07:58:53.741Z,77.35
2023-01-18T08:01:22.554Z,77.65
2023-01-18T08:03:50.329Z,78.10
2023-01-18T08:06:22.408Z,77.46
2023-01-18T08:08:48.985Z,77.83
2023-01-18T08:11:15.454Z,78.10
2023-01-18T08:13:41.905Z,78.25
2023-01-18T08:16:11.396Z,77.95
2023-01-18T08:18:38.446Z,78.46
2023-01-18T08:21:05.090Z,78.84
2023-01-18T08:23:31.578Z,77.97
2023-01-18T08:26:02.120Z,76.82
2023-01-18T08:28:28.657Z,77.07
2023-01-18T08:31:09.872Z,77.73
2023-01-18T08:33:41.569Z,77.59
2023-01-18T08:36:11.458Z,77.20
2023-01-18T08:38:38.095Z,76.88
2023-01-18T08:41:05.113Z,76.58
2023-01-18T08:43:31.585Z,76.33
2023-01-18T08:45:58.021Z,76.37
2023-01-18T08:48:24.916Z,75.95
2023-01-18T08:50:51.809Z,76.10
2023-01-18T08:53:18.348Z,76.02
2023-01-18T08:55:44.853Z,75.81
2023-01-18T08:58:12.166Z,75.76
2023-01-18T09:00:38.724Z,75.08
2023-01-18T09:03:06.752Z,74.92
2023-01-18T09:05:35.337Z,74.79
2023-01-18T09:08:02.029Z,74.43
2023-01-18T09:10:28.610Z,74.35
2023-01-18T09:12:55.670Z,74.41
2023-01-18T09:15:22.212Z,74.27
2023-01-18T09:17:48.664Z,74.68
2023-01-18T09:20:18.523Z,74.85
2023-01-18T09:22:47.640Z,74.33
2023-01-18T09:25:14.320Z,74.47
2023-01-18T09:27:40.849Z,74.93
2023-01-18T09:30:09.588Z,74.63
2023-01-18T09:32:36.125Z,74.34
2023-01-18T09:35:02.930Z,74.05
2023-01-18T09:37:29.522Z,73.66
2023-01-18T09:39:56.112Z,72.99
2023-01-18T09:42:29.828Z,72.69
2023-01-18T09:45:00.729Z,72.44
2023-01-18T09:47:30.540Z,71.89
2023-01-18T09:49:59.353Z,71.91
2023-01-18T09:52:51.598Z,71.30
2023-01-18T09:55:42.685Z,71.66
2023-01-18T09:58:19.180Z,71.56
2023-01-18T10:00:48.568Z,70.87
2023-01-18T10:03:28.437Z,70.19
2023-01-18T10:06:08.870Z,70.41
2023-01-18T10:08:59.641Z,69.82
2023-01-18T10:11:50.487Z,69.56
2023-01-18T10:14:40.447Z,69.46
2023-01-18T10:17:14.590Z,69.55
2023-01-18T10:19:41.287Z,69.80
2023-01-18T10:22:33.380Z,69.01
2023-01-18T10:25:05.460Z,68.69
2023-01-18T10:28:12.903Z,69.05
2023-01-18T10:30:58.235Z,68.50
2023-01-18T10:33:33.320Z,68.92
2023-01-18T10:36:22.173Z,67.94
2023-01-18T10:38:52.122Z,69.66
2023-01-18T10:41:22.127Z,70.25
2023-01-18T10:43:48.742Z,70.64
2023-01-18T10:46:18.804Z,70.40
2023-01-18T10:48:53.680Z,70.36
2023-01-18T10:51:37.533Z,69.97
2023-01-18T10:54:26.129Z,69.52
2023-01-18T10:57:04.606Z,70.54
2023-01-18T10:59:39.684Z,70.69
2023-01-18T11:02:20.998Z,70.62
2023-01-18T11:04:56.671Z,70.12
2023-01-18T11:07:25.670Z,69.91
2023-01-18T11:09:55.643Z,70.87
2023-01-18T11:12:37.150Z,71.22
2023-01-18T11:15:15.798Z,71.54
2023-01-18T11:17:58.542Z,71.02
2023-01-18T11:20:30.844Z,71.78
2023-01-18T11:23:00.881Z,74.00
2023-01-18T11:25:37.134Z,76.07
2023-01-18T11:28:07.414Z,72.88
2023-01-18T11:30:34.843Z,72.50
2023-01-18T11:33:01.533Z,72.39
2023-01-18T11:35:34.164Z,72.60
2023-01-18T11:38:02.953Z,73.49
2023-01-18T11:40:32.291Z,73.08
2023-01-18T11:43:04.343Z,73.03
2023-01-18T11:45:40.861Z,72.38
2023-01-18T11:48:13.289Z,72.37
2023-01-18T11:50:54.207Z,72.30
2023-01-18T11:54:02.089Z,72.22
2023-01-18T11:56:42.426Z,71.82
2023-01-18T11:59:17.768Z,72.35
2023-01-18T12:01:56.397Z,72.03
2023-01-18T12:04:39.167Z,71.80
2023-01-18T12:07:32.151Z,72.11
2023-01-18T12:10:01.322Z,72.65
2023-01-18T12:12:55.925Z,71.98
2023-01-18T12:16:02.170Z,71.60
2023-01-18T12:18:47.733Z,71.58
2023-01-18T12:21:24.153Z,71.60
2023-01-18T12:24:16.448Z,71.25
2023-01-18T12:27:00.242Z,71.29
2023-01-18T12:29:58.010Z,71.11
2023-01-18T12:32:43.740Z,71.89
2023-01-18T12:35:23.747Z,72.25
2023-01-18T12:37:50.984Z,72.31
2023-01-18T12:40:39.032Z,72.02
2023-01-18T12:43:27.141Z,72.01
2023-01-18T12:46:07.421Z,71.84
2023-01-18T12:48:53.139Z,71.62
2023-01-18T12:51:23.879Z,71.80
2023-01-18T12:54:26.794Z,71.20
2023-01-18T12:56:56.388Z,71.56
2023-01-18T12:59:35.777Z,71.32
2023-01-18T13:02:22.295Z,71.93
2023-01-18T13:04:55.425Z,71.99
2023-01-18T13:07:30.016Z,71.39
2023-01-18T13:09:57.472Z,71.74
2023-01-18T13:12:25.917Z,71.74
2023-01-18T13:15:01.815Z,71.07
2023-01-18T13:17:47.288Z,70.66
2023-01-18T13:20:29.591Z,70.82
2023-01-18T13:22:58.896Z,70.91
2023-01-18T13:25:40.592Z,70.28
2023-01-18T13:28:18.052Z,71.24
2023-01-18T13:30:56.522Z,71.06
2023-01-18T13:33:26.982Z,70.82
2023-01-18T13:35:56.416Z,70.47
2023-01-18T13:38:40.096Z,71.66
2023-01-18T13:41:11.853Z,71.66
2023-01-18T13:43:38.453Z,71.22
2023-01-18T13:46:07.777Z,71.57
2023-01-18T13:48:55.452Z,71.71
2023-01-18T13:51:40.341Z,72.28
2023-01-18T13:54:18.647Z,71.37
2023-01-18T13:57:05.517Z,72.11
2023-01-18T13:59:35.591Z,71.60
2023-01-18T14:02:17.356Z,71.50
2023-01-18T14:04:43.996Z,70.97
2023-01-18T14:07:23.044Z,71.41
2023-01-18T14:09:50.802Z,72.28
2023-01-18T14:12:50.767Z,71.85
2023-01-18T14:15:30.451Z,72.65
2023-01-18T14:17:59.212Z,72.05
2023-01-18T14:20:45.297Z,72.22
2023-01-18T14:23:39.284Z,71.86
2023-01-18T14:26:12.075Z,71.71
2023-01-18T14:28:48.020Z,72.56
2023-01-18T14:31:20.991Z,72.40
2023-01-18T14:33:47.841Z,72.44
2023-01-18T14:36:26.090Z,72.93
2023-01-18T14:39:16.270Z,71.98
2023-01-18T14:41:49.753Z,72.16
2023-01-18T14:44:56.809Z,71.63
2023-01-18T14:47:28.278Z,70.99
2023-01-18T14:49:55.723Z,71.09
2023-01-18T14:52:27.498Z,70.41
2023-01-18T14:54:55.811Z,70.08
2023-01-18T14:57:24.012Z,70.73
2023-01-18T15:00:08.032Z,70.81
2023-01-18T15:02:38.792Z,70.54
2023-01-18T15:05:17.231Z,70.26
2023-01-18T15:07:46.410Z,70.62
2023-01-18T15:10:18.684Z,70.37
2023-01-18T15:12:49.562Z,69.71
2023-01-18T15:15:26.093Z,69.34
2023-01-18T15:17:56.483Z,68.91
2023-01-18T15:20:23.142Z,67.94
2023-01-18T15:22:51.011Z,67.67
2023-01-18T15:25:24.249Z,67.51
2023-01-18T15:27:52.109Z,67.23
2023-01-18T15:30:22.092Z,66.96
2023-01-18T15:32:52.949Z,66.01
2023-01-18T15:35:22.685Z,66.07
2023-01-18T15:37:49.275Z,64.82
2023-01-18T15:40:15.903Z,65.03
2023-01-18T15:42:43.885Z,66.56
2023-01-18T15:45:19.590Z,68.19
2023-01-18T15:47:50.163Z,69.94
2023-01-18T15:50:22.298Z,70.29
2023-01-18T15:53:06.321Z,70.73
2023-01-18T15:55:58.423Z,71.44
2023-01-18T15:58:40.802Z,72.86
2023-01-18T16:01:13.110Z,73.04
2023-01-18T16:03:50.093Z,72.96
2023-01-18T16:06:31.947Z,72.21
2023-01-18T16:09:21.008Z,72.34
2023-01-18T16:11:52.722Z,72.05
2023-01-18T16:14:27.833Z,71.21
2023-01-18T16:17:20.816Z,71.57
2023-01-18T16:19:53.646Z,71.58
2023-01-18T16:22:26.288Z,71.76
2023-01-18T16:24:56.598Z,71.38
2023-01-18T16:27:27.647Z,71.25
2023-01-18T16:30:05.393Z,71.59
2023-01-18T16:32:34.781Z,71.61
2023-01-18T16:35:21.054Z,71.40
2023-01-18T16:37:48.918Z,72.19
2023-01-18T16:40:23.396Z,73.66
2023-01-18T16:43:01.375Z,75.07
2023-01-18T16:45:30.082Z,74.60
2023-01-18T16:47:56.675Z,75.79
2023-01-18T16:50:23.506Z,76.06
2023-01-18T16:52:50.029Z,75.66
2023-01-18T16:55:17.955Z,76.77
2023-01-18T16:57:44.799Z,76.22
2023-01-18T17:00:24.076Z,76.04
2023-01-18T17:02:50.644Z,76.87
2023-01-18T17:05:17.478Z,76.95
2023-01-18T17:07:44.045Z,77.58
2023-01-18T17:10:26.099Z,77.91
2023-01-18T17:12:52.683Z,77.09
2023-01-18T17:15:20.239Z,77.62
2023-01-18T17:17:47.505Z,77.70
2023-01-18T17:20:21.049Z,77.33
2023-01-18T17:22:47.557Z,76.88
2023-01-18T17:25:15.291Z,77.36
2023-01-18T17:27:42.105Z,77.84
2023-01-18T17:30:10.469Z,77.24
2023-01-18T17:32:37.089Z,77.60
2023-01-18T17:35:05.693Z,77.67
2023-01-18T17:37:34.098Z,77.33
2023-01-18T17:40:16.349Z,77.10
2023-01-18T17:42:44.723Z,77.87
2023-01-18T17:45:14.335Z,77.48
2023-01-18T17:47:42.916Z,76.87
2023-01-18T17:50:12.142Z,77.29
2023-01-18T17:52:40.410Z,78.31
2023-01-18T17:55:10.355Z,78.74
2023-01-18T17:57:36.949Z,78.51
2023-01-18T18:00:04.824Z,78.30
2023-01-18T18:02:31.293Z,78.81
2023-01-18T18:04:59.361Z,78.87
2023-01-18T18:07:26.397Z,79.61
2023-01-18T18:09:58.118Z,79.46
2023-01-18T18:12:24.552Z,79.36
2023-01-18T18:14:53.289Z,79.55
2023-01-18T18:17:20.031Z,79.79
2023-01-18T18:19:46.467Z,80.18
2023-01-18T18:22:12.928Z,80.37
2023-01-18T18:24:39.559Z,80.62
2023-01-18T18:27:06.124Z,81.60
2023-01-18T18:29:33.179Z,81.22
2023-01-18T18:31:59.708Z,81.49
2023-01-18T18:34:26.233Z,81.19
2023-01-18T18:36:52.697Z,81.05
2023-01-18T18:39:19.207Z,80.75
2023-01-18T18:41:48.289Z,80.78
2023-01-18T18:44:15.071Z,80.59
2023-01-18T18:46:42.026Z,81.60
2023-01-18T18:49:08.535Z,81.85
2023-01-18T18:51:37.921Z,81.60
2023-01-18T18:54:05.002Z,81.13
2023-01-18T18:56:31.866Z,81.22
2023-01-18T18:58:58.428Z,81.36
2023-01-18T19:01:29.205Z,81.92
2023-01-18T19:03:58.484Z,81.20
2023-01-18T19:06:25.841Z,81.31
2023-01-18T19:08:52.407Z,81.63
2023-01-18T19:11:18.945Z,82.25
2023-01-18T19:13:46.336Z,82.23
2023-01-18T19:16:14.007Z,82.23
2023-01-18T19:18:41.179Z,82.39
2023-01-18T19:21:07.729Z,82.59
2023-01-18T19:23:34.551Z,82.64
2023-01-18T19:26:01.164Z,83.07
2023-01-18T19:28:27.739Z,82.58
2023-01-18T19:30:54.928Z,83.20
2023-01-18T19:33:21.433Z,83.53
2023-01-18T19:35:47.863Z,83.09
2023-01-18T19:38:14.909Z,83.71
2023-01-18T19:40:41.949Z,83.47
2023-01-18T19:43:08.425Z,83.70
2023-01-18T19:45:37.694Z,84.03
2023-01-18T19:48:05.101Z,84.18
2023-01-18T19:50:31.901Z,84.66
2023-01-18T19:52:58.794Z,84.73
2023-01-18T19:55:25.596Z,84.99
2023-01-18T19:57:55.156Z,85.05
2023-01-18T20:00:21.803Z,85.85
2023-01-18T20:02:48.396Z,85.84
2023-01-18T20:05:14.987Z,85.66
2023-01-18T20:07:41.465Z,86.25
2023-01-18T20:10:08.382Z,86.47
2023-01-18T20:12:35.040Z,86.29
2023-01-18T20:15:01.702Z,86.93
2023-01-18T20:17:28.196Z,87.43
2023-01-18T20:19:54.741Z,87.61
2023-01-18T20:22:22.497Z,87.80
2023-01-18T20:24:49.298Z,88.49
2023-01-18T20:27:17.329Z,88.60
2023-01-18T20:29:44.906Z,88.68
2023-01-18T20:32:17.128Z,88.67
2023-01-18T20:34:46.433Z,89.15
2023-01-18T20:37:13.704Z,89.35
2023-01-18T20:39:40.244Z,89.50
2023-01-18T20:42:06.819Z,89.11
2023-01-18T20:44:33.396Z,89.82
2023-01-18T20:46:59.911Z,90.03
2023-01-18T20:49:37.296Z,89.95
2023-01-18T20:52:05.115Z,90.36
2023-01-18T20:54:31.618Z,90.25
2023-01-18T20:56:58.818Z,90.04
2023-01-18T20:59:25.630Z,90.06
2023-01-18T21:01:52.992Z,90.40
2023-01-18T21:04:22.372Z,89.91
2023-01-18T21:06:49.815Z,90.29
2023-01-18T21:09:16.940Z,90.31
2023-01-18T21:11:43.807Z,90.27
2023-01-18T21:14:10.387Z,90.35
2023-01-18T21:16:37.009Z,90.60
2023-01-18T21:19:03.640Z,90.29
2023-01-18T21:21:31.772Z,89.95
2023-01-18T21:23:58.645Z,90.60
2023-01-18T21:26:25.201Z,90.77
2023-01-18T21:28:51.677Z,90.56
2023-01-18T21:31:18.305Z,90.32
2023-01-18T21:33:44.961Z,90.34
2023-01-18T21:36:17.619Z,90.39
2023-01-18T21:38:44.598Z,90.79
2023-01-18T21:41:30.031Z,91.64
2023-01-18T21:44:15.436Z,91.71
2023-01-18T21:46:49.705Z,92.35
2023-01-18T21:49:52.194Z,91.94
2023-01-18T21:52:39.665Z,92.04
2023-01-18T21:55:06.264Z,91.95
2023-01-18T21:57:32.706Z,92.76
2023-01-18T21:59:59.124Z,92.53
2023-01-18T22:02:25.773Z,92.80
2023-01-18T22:05:01.931Z,92.30
2023-01-18T22:07:30.243Z,92.21
2023-01-18T22:10:06.105Z,92.75
2023-01-18T22:12:35.543Z,92.27
2023-01-18T22:15:03.034Z,92.07
2023-01-18T22:17:29.864Z,92.75
2023-01-18T22:19:56.517Z,92.03
2023-01-18T22:22:22.965Z,91.92
2023-01-18T22:24:49.630Z,92.58
2023-01-18T22:27:16.193Z,92.08
2023-01-18T22:29:42.799Z,91.92
2023-01-18T22:32:09.332Z,92.35
2023-01-18T22:34:36.341Z,91.91
2023-01-18T22:37:03.292Z,91.70
2023-01-18T22:39:29.943Z,91.41
2023-01-18T22:41:56.425Z,91.10
2023-01-18T22:44:23.129Z,91.22
2023-01-18T22:46:49.618Z,91.21
2023-01-18T22:49:16.110Z,91.12
2023-01-18T22:51:42.547Z,91.41
2023-01-18T22:54:09.063Z,91.34
2023-01-18T22:56:35.742Z,90.92
2023-01-18T22:59:02.274Z,90.85
2023-01-18T23:01:31.453Z,90.94
2023-01-18T23:04:00.265Z,91.32
2023-01-18T23:06:28.143Z,91.42
2023-01-18T23:08:55.892Z,90.99
2023-01-18T23:11:25.430Z,90.64
2023-01-18T23:14:15.912Z,90.83
2023-01-18T23:17:02.030Z,90.91
2023-01-18T23:19:30.447Z,90.45
2023-01-18T23:21:57.751Z,90.24
2023-01-18T23:24:24.442Z,90.13
2023-01-18T23:26:51.935Z,90.18
2023-01-18T23:29:18.953Z,89.78
2023-01-18T23:31:46.703Z,89.91
2023-01-18T23:34:13.280Z,90.25
2023-01-18T23:36:39.847Z,90.34
2023-01-18T23:39:25.142Z,90.41
2023-01-18T23:42:10.371Z,89.83
2023-01-18T23:44:55.625Z,89.78
2023-01-18T23:47:41.006Z,89.38
2023-01-18T23:50:26.565Z,89.40
2023-01-18T23:53:11.855Z,89.35
2023-01-18T23:55:38.389Z,89.35
2023-01-18T23:58:04.923Z,90.05
